createdAt,value
2023-01-09T00:01:01.123Z,100.00
2023-01-09T00:03:28.452Z,100.00
2023-01-09T00:05:55.214Z,100.00
2023-01-09T00:08:22.207Z,100.00
2023-01-09T00:10:50.800Z,100.00
2023-01-09T00:13:18.459Z,100.00
2023-01-09T00:15:45.932Z,100.00
2023-01-09T00:18:12.894Z,100.00
2023-01-09T00:20:39.979Z,100.00
2023-01-09T00:23:06.949Z,100.00
2023-01-09T00:25:34.279Z,100.00
2023-01-09T00:28:01.679Z,100.00
2023-01-09T00:30:29.041Z,100.00
2023-01-09T00:32:56.884Z,100.00
2023-01-09T00:35:29.126Z,100.00
2023-01-09T00:37:56.127Z,100.00
2023-01-09T00:40:23.389Z,100.00
2023-01-09T00:42:56.483Z,100.00
2023-01-09T00:45:29.622Z,100.00
2023-01-09T00:48:07.609Z,100.00
2023-01-09T00:50:38.065Z,100.00
2023-01-09T00:53:18.026Z,100.00
2023-01-09T00:55:45.112Z,100.00
2023-01-09T00:58:12.463Z,100.00
2023-01-09T01:00:42.010Z,100.00
2023-01-09T01:03:09.252Z,100.00
2023-01-09T01:05:55.182Z,100.00
2023-01-09T01:08:22.234Z,100.00
2023-01-09T01:10:49.666Z,100.00
2023-01-09T01:13:17.778Z,100.00
2023-01-09T01:15:46.441Z,100.00
2023-01-09T01:18:14.560Z,100.00
2023-01-09T01:20:43.161Z,100.00
2023-01-09T01:23:10.365Z,100.00
2023-01-09T01:25:40.046Z,100.00
2023-01-09T01:28:08.059Z,100.00
2023-01-09T01:30:38.839Z,100.00
2023-01-09T01:33:06.196Z,100.00
2023-01-09T01:35:36.467Z,100.00
2023-01-09T01:38:07.207Z,100.00
2023-01-09T01:40:34.711Z,100.00
2023-01-09T01:43:01.718Z,100.00
2023-01-09T01:45:30.172Z,100.00
2023-01-09T01:48:06.477Z,100.00
2023-01-09T01:50:35.903Z,100.00
2023-01-09T01:53:05.886Z,100.00
2023-01-09T01:55:36.504Z,100.00
2023-01-09T01:58:07.539Z,100.00
2023-01-09T02:00:40.773Z,100.00
2023-01-09T02:03:08.544Z,100.00
2023-01-09T02:05:38.226Z,100.00
2023-01-09T02:08:06.887Z,100.00
2023-01-09T02:10:34.242Z,100.00
2023-01-09T02:13:02.603Z,100.00
2023-01-09T02:15:37.154Z,100.00
2023-01-09T02:18:20.051Z,100.00
2023-01-09T02:21:24.433Z,100.00
2023-01-09T02:23:51.254Z,100.00
2023-01-09T02:26:36.517Z,100.00
2023-01-09T02:29:31.226Z,100.00
2023-01-09T02:32:12.857Z,100.00
2023-01-09T02:34:53.262Z,100.00
2023-01-09T02:37:23.088Z,100.00
2023-01-09T02:40:02.518Z,100.00
2023-01-09T02:42:31.539Z,100.00
2023-01-09T02:44:58.321Z,100.00
2023-01-09T02:47:25.241Z,100.00
2023-01-09T02:49:55.324Z,100.00
2023-01-09T02:52:49.973Z,100.00
2023-01-09T02:55:32.176Z,100.00
2023-01-09T02:58:29.506Z,100.00
2023-01-09T03:01:02.155Z,100.00
2023-01-09T03:03:46.962Z,100.00
2023-01-09T03:06:38.569Z,100.00
2023-01-09T03:09:11.096Z,100.00
2023-01-09T03:11:42.629Z,100.00
2023-01-09T03:14:15.273Z,100.00
2023-01-09T03:16:45.236Z,100.00
2023-01-09T03:19:18.206Z,100.00
2023-01-09T03:21:46.741Z,100.00
2023-01-09T03:24:14.192Z,100.00
2023-01-09T03:26:41.498Z,100.00
2023-01-09T03:29:08.427Z,100.00
2023-01-09T03:31:35.365Z,100.00
2023-01-09T03:34:02.236Z,100.00
2023-01-09T03:36:29.229Z,100.00
2023-01-09T03:38:55.996Z,100.00
2023-01-09T03:41:23.227Z,100.00
2023-01-09T03:43:50.075Z,100.00
2023-01-09T03:46:17.535Z,100.00
2023-01-09T03:48:44.348Z,100.00
2023-01-09T03:51:11.322Z,100.00
2023-01-09T03:53:40.992Z,100.00
2023-01-09T03:56:08.316Z,100.00
2023-01-09T03:58:35.552Z,100.00
2023-01-09T04:01:05.105Z,100.00
2023-01-09T04:03:32.344Z,100.00
2023-01-09T04:05:59.844Z,100.00
2023-01-09T04:08:26.885Z,100.00
2023-01-09T04:10:53.877Z,100.00
2023-01-09T04:13:21.002Z,100.00
2023-01-09T04:15:47.672Z,100.00
2023-01-09T04:18:15.111Z,100.00
2023-01-09T04:20:42.442Z,100.00
2023-01-09T04:23:09.285Z,100.00
2023-01-09T04:25:36.215Z,100.00
2023-01-09T04:28:03.283Z,100.00
2023-01-09T04:30:30.226Z,100.00
2023-01-09T04:32:57.364Z,100.00
2023-01-09T04:35:24.072Z,100.00
2023-01-09T04:37:50.912Z,100.00
2023-01-09T04:40:18.352Z,100.00
2023-01-09T04:42:45.180Z,100.00
2023-01-09T04:45:12.519Z,100.00
2023-01-09T04:47:39.249Z,100.00
2023-01-09T04:50:06.396Z,100.00
2023-01-09T04:52:33.310Z,100.00
2023-01-09T04:55:00.248Z,100.00
2023-01-09T04:57:27.052Z,100.00
2023-01-09T04:59:54.389Z,100.00
2023-01-09T05:02:21.367Z,100.00
2023-01-09T05:04:48.285Z,100.00
2023-01-09T05:07:15.499Z,100.00
2023-01-09T05:09:43.099Z,100.00
2023-01-09T05:12:10.001Z,100.00
2023-01-09T05:14:36.887Z,100.00
2023-01-09T05:17:03.694Z,100.00
2023-01-09T05:19:30.487Z,100.00
2023-01-09T05:21:57.181Z,100.00
2023-01-09T05:24:23.809Z,100.00
2023-01-09T05:26:50.463Z,100.00
2023-01-09T05:29:17.150Z,100.00
2023-01-09T05:31:44.187Z,100.00
2023-01-09T05:34:11.074Z,100.00
2023-01-09T05:36:37.785Z,100.00
2023-01-09T05:39:05.728Z,100.00
2023-01-09T05:41:32.961Z,100.00
2023-01-09T05:43:59.861Z,100.00
2023-01-09T05:46:26.884Z,100.00
2023-01-09T05:48:53.727Z,100.00
2023-01-09T05:51:20.795Z,100.00
2023-01-09T05:53:47.718Z,100.00
2023-01-09T05:56:14.430Z,100.00
2023-01-09T05:58:41.673Z,100.00
2023-01-09T06:01:08.636Z,100.00
2023-01-09T06:03:35.759Z,100.00
2023-01-09T06:06:02.728Z,100.00
2023-01-09T06:08:29.723Z,100.00
2023-01-09T06:10:56.624Z,100.00
2023-01-09T06:13:23.261Z,100.00
2023-01-09T06:15:50.051Z,100.00
2023-01-09T06:18:16.938Z,100.00
2023-01-09T06:20:46.154Z,100.00
2023-01-09T06:23:13.705Z,100.00
2023-01-09T06:25:40.850Z,100.00
2023-01-09T06:28:07.781Z,100.00
2023-01-09T06:30:34.717Z,100.00
2023-01-09T06:33:01.566Z,100.00
2023-01-09T06:35:28.321Z,100.00
2023-01-09T06:37:55.259Z,100.00
2023-01-09T06:40:21.967Z,100.00
2023-01-09T06:42:49.746Z,100.00
2023-01-09T06:45:16.677Z,100.00
2023-01-09T06:47:43.662Z,100.00
2023-01-09T06:50:11.336Z,100.00
2023-01-09T06:52:38.880Z,100.00
2023-01-09T06:55:06.287Z,100.00
2023-01-09T06:57:33.087Z,100.00
2023-01-09T06:59:59.763Z,100.00
2023-01-09T07:02:26.373Z,100.00
2023-01-09T07:04:53.192Z,100.00
2023-01-09T07:07:22.444Z,100.00
2023-01-09T07:09:50.071Z,100.00
2023-01-09T07:12:16.904Z,100.00
2023-01-09T07:14:44.232Z,100.00
2023-01-09T07:17:14.534Z,100.00
2023-01-09T07:19:42.278Z,100.00
2023-01-09T07:22:10.431Z,100.00
2023-01-09T07:24:37.161Z,100.00
2023-01-09T07:27:04.308Z,100.00
2023-01-09T07:29:31.147Z,100.00
2023-01-09T07:31:57.882Z,100.00
2023-01-09T07:34:24.556Z,100.00
2023-01-09T07:36:51.488Z,100.00
2023-01-09T07:39:18.281Z,100.00
2023-01-09T07:41:45.496Z,100.00
2023-01-09T07:44:12.900Z,100.00
2023-01-09T07:46:39.875Z,100.00
2023-01-09T07:49:06.940Z,100.00
2023-01-09T07:51:33.900Z,99.21
2023-01-09T07:54:00.685Z,99.15
2023-01-09T07:56:27.451Z,97.17
2023-01-09T07:58:54.254Z,95.75
2023-01-09T08:01:21.031Z,95.36
2023-01-09T08:03:47.930Z,92.50
2023-01-09T08:06:14.804Z,92.85
2023-01-09T08:08:41.561Z,89.30
2023-01-09T08:11:08.429Z,90.20
2023-01-09T08:13:35.259Z,88.29
2023-01-09T08:16:02.099Z,89.45
2023-01-09T08:18:29.019Z,89.48
2023-01-09T08:20:55.980Z,88.46
2023-01-09T08:23:22.781Z,87.42
2023-01-09T08:25:49.601Z,86.16
2023-01-09T08:28:17.396Z,86.78
2023-01-09T08:30:51.042Z,85.64
2023-01-09T08:33:21.135Z,85.55
2023-01-09T08:35:48.425Z,85.85
2023-01-09T08:38:15.277Z,85.18
2023-01-09T08:40:42.137Z,86.38
2023-01-09T08:43:28.007Z,85.71
2023-01-09T08:46:13.712Z,84.07
2023-01-09T08:48:40.864Z,86.06
2023-01-09T08:51:07.582Z,85.30
2023-01-09T08:53:34.391Z,85.10
2023-01-09T08:56:01.308Z,84.46
2023-01-09T08:58:28.381Z,84.29
2023-01-09T09:00:55.368Z,83.38
2023-01-09T09:03:22.446Z,82.08
2023-01-09T09:05:49.166Z,83.60
2023-01-09T09:08:16.590Z,83.00
2023-01-09T09:10:43.459Z,82.09
2023-01-09T09:13:10.138Z,82.49
2023-01-09T09:15:38.308Z,83.20
2023-01-09T09:18:07.321Z,82.30
2023-01-09T09:20:39.117Z,81.36
2023-01-09T09:23:08.255Z,82.03
2023-01-09T09:25:38.315Z,80.42
2023-01-09T09:28:05.890Z,81.16
2023-01-09T09:30:32.930Z,80.53
2023-01-09T09:33:00.384Z,81.42
2023-01-09T09:35:28.626Z,81.41
2023-01-09T09:37:59.505Z,80.63
2023-01-09T09:40:47.424Z,80.35
2023-01-09T09:43:38.934Z,79.24
2023-01-09T09:46:20.190Z,79.83
2023-01-09T09:48:58.298Z,79.84
2023-01-09T09:51:43.267Z,78.61
2023-01-09T09:54:26.048Z,78.43
2023-01-09T09:56:56.927Z,78.11
2023-01-09T09:59:32.453Z,76.57
2023-01-09T10:02:05.072Z,76.53
2023-01-09T10:04:33.891Z,77.14
2023-01-09T10:07:10.018Z,76.69
2023-01-09T10:09:45.861Z,75.87
2023-01-09T10:12:27.656Z,76.37
2023-01-09T10:14:59.853Z,76.20
2023-01-09T10:17:26.429Z,76.85
2023-01-09T10:20:20.987Z,77.06
2023-01-09T10:23:02.903Z,77.70
2023-01-09T10:25:46.208Z,77.64
2023-01-09T10:28:35.056Z,77.76
2023-01-09T10:31:39.383Z,77.90
2023-01-09T10:34:34.950Z,77.47
2023-01-09T10:37:25.674Z,77.95
2023-01-09T10:39:58.967Z,77.13
2023-01-09T10:42:38.135Z,76.76
2023-01-09T10:45:20.109Z,76.61
2023-01-09T10:47:47.920Z,76.24
2023-01-09T10:50:21.031Z,75.98
2023-01-09T10:52:51.308Z,75.92
2023-01-09T10:55:42.828Z,74.79
2023-01-09T10:58:22.020Z,74.01
2023-01-09T11:00:51.150Z,75.08
2023-01-09T11:03:23.422Z,73.80
2023-01-09T11:05:57.859Z,73.13
2023-01-09T11:08:27.816Z,73.35
2023-01-09T11:10:56.857Z,73.55
2023-01-09T11:13:23.636Z,72.81
2023-01-09T11:15:59.204Z,72.77
2023-01-09T11:18:26.419Z,72.86
2023-01-09T11:20:53.557Z,72.53
2023-01-09T11:23:29.634Z,72.28
2023-01-09T11:25:59.285Z,71.79
2023-01-09T11:28:26.633Z,71.68
2023-01-09T11:30:56.564Z,71.11
2023-01-09T11:33:25.513Z,71.16
2023-01-09T11:36:08.222Z,70.21
2023-01-09T11:39:01.263Z,70.08
2023-01-09T11:41:35.007Z,68.90
2023-01-09T11:44:06.842Z,68.49
2023-01-09T11:46:44.132Z,67.53
2023-01-09T11:49:19.970Z,67.01
2023-01-09T11:51:46.854Z,66.99
2023-01-09T11:54:16.346Z,67.03
2023-01-09T11:56:43.436Z,67.63
2023-01-09T11:59:19.694Z,66.59
2023-01-09T12:01:46.656Z,66.27
2023-01-09T12:04:19.034Z,66.04
2023-01-09T12:07:23.170Z,65.28
2023-01-09T12:10:11.005Z,65.40
2023-01-09T12:12:59.182Z,65.29
2023-01-09T12:15:28.663Z,65.76
2023-01-09T12:18:03.748Z,64.74
2023-01-09T12:21:29.515Z,65.00
2023-01-09T12:24:32.264Z,64.83
2023-01-09T12:27:18.958Z,64.66
2023-01-09T12:29:48.609Z,64.81
2023-01-09T12:32:37.396Z,64.98
2023-01-09T12:35:10.215Z,63.55
2023-01-09T12:37:45.874Z,64.10
2023-01-09T12:40:15.755Z,63.60
2023-01-09T12:43:09.212Z,62.65
2023-01-09T12:45:57.418Z,63.45
2023-01-09T12:48:39.477Z,62.71
2023-01-09T12:51:14.354Z,63.36
2023-01-09T12:53:47.517Z,63.56
2023-01-09T12:56:20.259Z,63.60
2023-01-09T12:59:06.037Z,63.68
2023-01-09T13:01:39.073Z,62.93
2023-01-09T13:08:01.049Z,63.60
2023-01-09T13:10:48.099Z,63.07
2023-01-09T13:13:54.002Z,63.71
2023-01-09T13:16:34.627Z,63.48
2023-01-09T13:19:10.659Z,64.41
2023-01-09T13:21:41.556Z,63.52
2023-01-09T13:24:24.555Z,63.91
2023-01-09T13:26:58.366Z,64.09
2023-01-09T13:29:48.153Z,64.04
2023-01-09T13:35:01.910Z,63.86
2023-01-09T13:37:51.848Z,64.25
2023-01-09T13:40:21.579Z,64.00
2023-01-09T13:43:05.922Z,64.96
2023-01-09T13:45:44.980Z,65.19
2023-01-09T13:48:14.228Z,65.95
2023-01-09T13:50:46.081Z,65.98
2023-01-09T13:53:27.228Z,66.22
2023-01-09T13:56:03.283Z,66.21
2023-01-09T13:58:39.875Z,66.46
2023-01-09T14:01:25.183Z,65.56
2023-01-09T14:04:21.678Z,66.22
2023-01-09T14:07:24.489Z,66.83
2023-01-09T14:10:01.185Z,66.54
2023-01-09T14:12:31.689Z,66.86
2023-01-09T14:15:04.134Z,66.86
2023-01-09T14:17:40.752Z,66.57
2023-01-09T14:20:23.721Z,67.52
2023-01-09T14:23:18.178Z,66.48
2023-01-09T14:25:45.014Z,67.86
2023-01-09T14:28:26.839Z,67.40
2023-01-09T14:30:53.855Z,67.78
2023-01-09T14:33:20.847Z,68.67
2023-01-09T14:36:11.549Z,68.60
2023-01-09T14:38:48.387Z,69.30
2023-01-09T14:41:46.186Z,69.20
2023-01-09T14:44:43.374Z,68.92
2023-01-09T14:47:22.902Z,69.66
2023-01-09T14:50:06.596Z,70.98
2023-01-09T14:52:44.931Z,70.54
2023-01-09T14:55:37.179Z,70.68
2023-01-09T14:58:31.582Z,71.95
2023-01-09T15:01:15.017Z,71.85
2023-01-09T15:04:04.508Z,73.78
2023-01-09T15:06:36.263Z,71.52
2023-01-09T15:09:15.063Z,72.87
2023-01-09T15:11:42.452Z,73.01
2023-01-09T15:14:26.872Z,72.74
2023-01-09T15:16:54.406Z,73.19
2023-01-09T15:19:24.667Z,73.25
2023-01-09T15:22:30.784Z,73.57
2023-01-09T15:24:58.961Z,74.06
2023-01-09T15:27:27.170Z,74.71
2023-01-09T15:29:54.154Z,73.14
2023-01-09T15:32:26.308Z,73.82
2023-01-09T15:34:55.716Z,73.40
2023-01-09T15:37:28.152Z,74.56
2023-01-09T15:40:00.971Z,75.15
2023-01-09T15:42:52.858Z,74.03
2023-01-09T15:45:25.531Z,73.85
2023-01-09T15:47:52.995Z,74.58
2023-01-09T15:50:28.408Z,74.70
2023-01-09T15:52:56.564Z,75.03
2023-01-09T15:55:38.942Z,75.45
2023-01-09T15:58:27.485Z,77.10
2023-01-09T16:00:58.368Z,77.59
2023-01-09T16:03:27.167Z,78.04
2023-01-09T16:06:05.869Z,78.24
2023-01-09T16:08:39.747Z,78.02
2023-01-09T16:11:22.526Z,78.51
2023-01-09T16:13:50.308Z,79.44
2023-01-09T16:16:31.170Z,78.83
2023-01-09T16:18:59.521Z,79.96
2023-01-09T16:21:37.348Z,79.60
2023-01-09T16:24:08.898Z,81.01
2023-01-09T16:26:35.702Z,82.22
2023-01-09T16:29:28.692Z,82.19
2023-01-09T16:32:00.675Z,82.44
2023-01-09T16:34:28.043Z,83.48
2023-01-09T16:36:55.239Z,83.98
2023-01-09T16:39:26.144Z,84.77
2023-01-09T16:42:33.695Z,84.91
2023-01-09T16:45:00.685Z,86.28
2023-01-09T16:47:29.405Z,86.87
2023-01-09T16:49:56.619Z,85.86
2023-01-09T16:52:23.688Z,86.31
2023-01-09T16:54:54.075Z,86.34
2023-01-09T16:57:21.131Z,86.56
2023-01-09T16:59:48.405Z,87.12
2023-01-09T17:02:20.387Z,87.09
2023-01-09T17:05:03.697Z,87.28
2023-01-09T17:11:24.683Z,88.92
2023-01-09T17:13:51.528Z,88.38
2023-01-09T17:16:19.620Z,89.77
2023-01-09T17:18:46.945Z,89.79
2023-01-09T17:21:25.342Z,89.73
2023-01-09T17:24:12.497Z,89.44
2023-01-09T17:27:01.902Z,89.72
2023-01-09T17:29:33.130Z,89.75
2023-01-09T17:31:59.940Z,90.76
2023-01-09T17:34:26.987Z,90.17
2023-01-09T17:36:55.775Z,90.35
2023-01-09T17:39:23.806Z,90.36
2023-01-09T17:41:50.516Z,91.53
2023-01-09T17:44:17.376Z,91.43
2023-01-09T17:46:45.497Z,91.50
2023-01-09T17:49:22.640Z,91.66
2023-01-09T17:51:50.009Z,91.03
2023-01-09T17:54:17.496Z,91.91
2023-01-09T17:56:52.486Z,91.59
2023-01-09T17:59:19.284Z,91.95
2023-01-09T18:01:47.593Z,92.15
2023-01-09T18:04:14.702Z,92.78
2023-01-09T18:06:41.667Z,93.26
2023-01-09T18:09:14.302Z,94.01
2023-01-09T18:11:41.252Z,94.37
2023-01-09T18:14:08.953Z,94.95
2023-01-09T18:16:36.146Z,94.76
2023-01-09T18:19:04.025Z,94.26
2023-01-09T18:21:31.376Z,95.65
2023-01-09T18:24:00.253Z,94.45
2023-01-09T18:26:27.563Z,95.13
2023-01-09T18:28:59.898Z,94.68
2023-01-09T18:31:28.466Z,94.05
2023-01-09T18:33:57.769Z,95.80
2023-01-09T18:36:29.996Z,95.11
2023-01-09T18:38:59.280Z,95.43
2023-01-09T18:41:27.195Z,95.17
2023-01-09T18:43:57.263Z,94.37
2023-01-09T18:46:24.859Z,93.94
2023-01-09T18:48:57.080Z,94.19
2023-01-09T18:51:25.812Z,94.83
2023-01-09T18:53:53.248Z,93.94
2023-01-09T18:56:21.444Z,93.28
2023-01-09T18:58:48.912Z,93.80
2023-01-09T19:01:16.666Z,94.85
2023-01-09T19:03:43.734Z,94.53
2023-01-09T19:06:11.180Z,94.14
2023-01-09T19:08:38.346Z,94.62
2023-01-09T19:11:05.836Z,95.06
2023-01-09T19:13:37.483Z,95.99
2023-01-09T19:16:06.141Z,96.53
2023-01-09T19:18:38.881Z,96.64
2023-01-09T19:21:15.279Z,99.46
2023-01-09T19:23:44.059Z,97.08
2023-01-09T19:26:23.762Z,94.65
2023-01-09T19:28:52.013Z,94.25
2023-01-09T19:31:19.570Z,95.04
2023-01-09T19:33:46.618Z,94.86
2023-01-09T19:36:13.606Z,94.71
2023-01-09T19:38:40.612Z,94.96
2023-01-09T19:41:14.406Z,95.61
2023-01-09T19:43:42.112Z,96.30
2023-01-09T19:46:11.563Z,97.29
2023-01-09T19:48:38.757Z,97.39
2023-01-09T19:51:07.652Z,97.23
2023-01-09T19:53:36.634Z,95.80
2023-01-09T19:56:23.495Z,96.82
2023-01-09T19:58:55.707Z,96.41
2023-01-09T20:01:25.755Z,97.03
2023-01-09T20:03:54.094Z,97.84
2023-01-09T20:06:24.503Z,97.43
2023-01-09T20:08:57.720Z,98.56
2023-01-09T20:11:27.208Z,97.51
2023-01-09T20:13:55.784Z,96.04
2023-01-09T20:16:30.845Z,96.87
2023-01-09T20:18:59.803Z,95.96
2023-01-09T20:21:28.751Z,92.57
2023-01-09T20:23:58.935Z,90.62
2023-01-09T20:26:26.144Z,88.58
2023-01-09T20:28:53.040Z,87.99
2023-01-09T20:31:21.451Z,87.72
2023-01-09T20:33:49.635Z,84.75
2023-01-09T20:36:16.807Z,83.28
2023-01-09T20:38:44.092Z,80.84
2023-01-09T20:41:25.598Z,79.79
2023-01-09T20:43:55.858Z,79.10
2023-01-09T20:46:25.080Z,78.71
2023-01-09T20:48:55.304Z,79.21
2023-01-09T20:51:22.314Z,78.36
2023-01-09T20:53:55.807Z,79.69
2023-01-09T20:56:27.433Z,78.94
2023-01-09T20:58:55.901Z,79.00
2023-01-09T21:01:25.979Z,78.46
2023-01-09T21:03:55.263Z,79.14
2023-01-09T21:06:24.204Z,77.78
2023-01-09T21:08:53.245Z,78.18
2023-01-09T21:11:21.749Z,78.39
2023-01-09T21:13:48.977Z,77.27
2023-01-09T21:16:21.841Z,77.88
2023-01-09T21:18:48.889Z,77.59
2023-01-09T21:21:19.084Z,76.48
2023-01-09T21:23:54.203Z,76.02
2023-01-09T21:26:25.782Z,76.18
2023-01-09T21:28:55.374Z,75.57
2023-01-09T21:31:25.806Z,75.96
2023-01-09T21:33:54.578Z,74.93
2023-01-09T21:36:22.165Z,74.83
2023-01-09T21:38:52.330Z,74.11
2023-01-09T21:41:39.158Z,73.78
2023-01-09T21:44:25.600Z,73.30
2023-01-09T21:46:52.614Z,72.55
2023-01-09T21:49:25.520Z,72.80
2023-01-09T21:51:53.807Z,71.68
2023-01-09T21:54:23.249Z,71.98
2023-01-09T21:56:51.801Z,71.46
2023-01-09T21:59:19.757Z,70.97
2023-01-09T22:01:47.892Z,70.87
2023-01-09T22:04:15.961Z,70.93
2023-01-09T22:06:43.338Z,70.47
2023-01-09T22:09:10.679Z,70.62
2023-01-09T22:11:38.942Z,69.98
2023-01-09T22:14:06.355Z,68.91
2023-01-09T22:16:33.954Z,68.60
2023-01-09T22:19:01.080Z,68.03
2023-01-09T22:21:27.936Z,67.99
2023-01-09T22:23:55.095Z,67.92
2023-01-09T22:26:21.927Z,67.67
2023-01-09T22:28:50.748Z,66.80
2023-01-09T22:31:21.215Z,67.46
2023-01-09T22:33:53.124Z,67.11
2023-01-09T22:36:20.502Z,66.63
2023-01-09T22:38:47.966Z,66.86
2023-01-09T22:41:15.425Z,66.48
2023-01-09T22:43:42.294Z,67.33
2023-01-09T22:46:11.704Z,67.39
2023-01-09T22:48:40.119Z,67.66
2023-01-09T22:51:12.234Z,66.76
2023-01-09T22:53:39.304Z,67.18
2023-01-09T22:56:13.725Z,67.37
2023-01-09T22:58:41.061Z,67.05
2023-01-09T23:01:13.314Z,67.40
2023-01-09T23:03:40.577Z,67.72
2023-01-09T23:06:13.137Z,67.47
2023-01-09T23:08:40.869Z,67.92
2023-01-09T23:11:15.252Z,68.97
2023-01-09T23:13:42.930Z,69.98
2023-01-09T23:16:10.247Z,71.59
2023-01-09T23:18:37.103Z,74.87
2023-01-09T23:21:05.475Z,76.22
2023-01-09T23:23:32.830Z,78.51
2023-01-09T23:26:03.497Z,77.44
2023-01-09T23:28:33.573Z,79.20
2023-01-09T23:31:00.339Z,81.14
2023-01-09T23:33:27.024Z,80.09
2023-01-09T23:35:53.969Z,80.48
2023-01-09T23:38:21.206Z,81.16
2023-01-09T23:40:48.144Z,83.85
2023-01-09T23:43:15.865Z,84.63
2023-01-09T23:45:45.051Z,83.42
2023-01-09T23:48:14.940Z,85.60
2023-01-09T23:50:49.525Z,83.60
2023-01-09T23:53:17.241Z,84.38
2023-01-09T23:55:44.547Z,85.08
2023-01-09T23:58:11.691Z,85.36
